createdAt,value
2023-01-15T00:00:18.736Z,8.40
2023-01-15T00:02:45.389Z,8.40
2023-01-15T00:05:18.713Z,8.50
2023-01-15T00:07:51.629Z,8.50
2023-01-15T00:10:24.661Z,8.50
2023-01-15T00:12:51.284Z,8.50
2023-01-15T00:15:24.691Z,8.40
2023-01-15T00:17:51.294Z,8.50
2023-01-15T00:20:18.073Z,8.40
2023-01-15T00:22:51.687Z,8.50
2023-01-15T00:25:53.846Z,8.60
2023-01-15T00:28:26.699Z,8.50
2023-01-15T00:30:53.318Z,8.50
2023-01-15T00:33:26.703Z,8.50
2023-01-15T00:35:53.570Z,8.50
2023-01-15T00:38:20.173Z,8.50
2023-01-15T00:40:59.625Z,8.50
2023-01-15T00:43:26.285Z,8.60
2023-01-15T00:45:59.693Z,8.60
2023-01-15T00:48:26.323Z,8.60
2023-01-15T00:51:06.681Z,8.60
2023-01-15T00:53:33.391Z,8.60
2023-01-15T00:56:06.715Z,8.60
2023-01-15T00:58:39.687Z,8.60
2023-01-15T01:01:06.524Z,8.60
2023-01-15T01:03:39.643Z,8.70
2023-01-15T01:06:06.655Z,8.60
2023-01-15T01:08:39.702Z,8.70
2023-01-15T01:11:08.838Z,8.70
2023-01-15T01:13:42.670Z,8.70
2023-01-15T01:16:30.462Z,8.70
2023-01-15T01:19:05.633Z,8.60
2023-01-15T01:21:32.401Z,8.70
2023-01-15T01:24:06.629Z,8.70
2023-01-15T01:26:33.562Z,8.60
2023-01-15T01:29:06.662Z,8.60
2023-01-15T01:31:33.682Z,8.70
2023-01-15T01:34:06.669Z,8.70
2023-01-15T01:36:35.726Z,8.60
2023-01-15T01:39:04.277Z,8.60
2023-01-15T01:41:37.698Z,8.60
2023-01-15T01:44:07.005Z,8.70
2023-01-15T01:46:42.696Z,8.70
2023-01-15T01:49:19.711Z,8.80
2023-01-15T01:51:57.432Z,8.70
2023-01-15T01:54:33.715Z,8.70
2023-01-15T01:57:00.918Z,8.70
2023-01-15T01:59:27.756Z,8.70
2023-01-15T02:02:00.809Z,8.80
2023-01-15T02:04:29.662Z,8.90
2023-01-15T02:06:58.753Z,8.80
2023-01-15T02:09:31.682Z,8.80
2023-01-15T02:12:22.453Z,8.80
2023-01-15T02:15:22.754Z,8.80
2023-01-15T02:18:00.676Z,8.90
2023-01-15T02:20:45.879Z,8.80
2023-01-15T02:23:39.766Z,8.80
2023-01-15T02:26:29.943Z,8.90
2023-01-15T02:29:05.716Z,8.90
2023-01-15T02:31:48.690Z,8.90
2023-01-15T02:34:51.783Z,8.90
2023-01-15T02:37:25.650Z,8.80
2023-01-15T02:40:00.707Z,8.80
2023-01-15T02:42:29.675Z,8.90
2023-01-15T02:45:00.160Z,8.90
2023-01-15T02:47:37.709Z,8.80
2023-01-15T02:50:17.648Z,8.80
2023-01-15T02:53:01.711Z,8.80
2023-01-15T02:55:45.844Z,8.80
2023-01-15T02:58:23.684Z,8.80
2023-01-15T03:01:01.799Z,8.80
2023-01-15T03:03:51.676Z,8.80
2023-01-15T03:06:48.701Z,8.70
2023-01-15T03:09:23.629Z,8.80
2023-01-15T03:12:18.661Z,8.70
2023-01-15T03:15:02.739Z,8.70
2023-01-15T03:17:37.482Z,8.70
2023-01-15T03:20:23.700Z,8.70
2023-01-15T03:22:55.649Z,8.70
2023-01-15T03:25:32.696Z,8.60
2023-01-15T03:28:09.726Z,8.70
2023-01-15T03:30:36.416Z,8.60
2023-01-15T03:33:03.112Z,8.60
2023-01-15T03:35:56.683Z,8.60
2023-01-15T03:38:33.717Z,8.60
2023-01-15T03:41:26.826Z,8.60
2023-01-15T03:44:39.713Z,8.60
2023-01-15T03:47:22.242Z,8.60
2023-01-15T03:50:15.633Z,8.60
2023-01-15T03:53:00.707Z,8.60
2023-01-15T03:55:50.574Z,8.60
2023-01-15T03:58:30.652Z,8.70
2023-01-15T04:01:07.830Z,8.60
2023-01-15T04:03:35.894Z,8.60
2023-01-15T04:06:03.630Z,8.70
2023-01-15T04:08:41.634Z,8.70
2023-01-15T04:11:14.701Z,8.70
2023-01-15T04:13:41.366Z,8.70
2023-01-15T04:16:15.735Z,8.80
2023-01-15T04:18:48.714Z,8.80
2023-01-15T04:21:15.342Z,8.80
2023-01-15T04:23:41.947Z,8.80
2023-01-15T04:26:14.688Z,8.80
2023-01-15T04:28:41.743Z,8.90
2023-01-15T04:31:08.522Z,8.80
2023-01-15T04:33:41.780Z,8.80
2023-01-15T04:36:11.622Z,8.90
2023-01-15T04:38:38.504Z,8.80
2023-01-15T04:41:31.618Z,8.80
2023-01-15T04:44:13.626Z,8.80
2023-01-15T04:46:43.358Z,8.80
2023-01-15T04:49:22.639Z,8.50
2023-01-15T04:52:02.684Z,8.40
2023-01-15T04:54:35.688Z,8.10
2023-01-15T04:57:02.349Z,8.00
2023-01-15T04:59:28.935Z,7.80
2023-01-15T05:02:05.971Z,7.50
2023-01-15T05:04:34.330Z,7.40
2023-01-15T05:07:11.716Z,7.20
2023-01-15T05:09:38.412Z,7.10
2023-01-15T05:12:12.705Z,7.00
2023-01-15T05:14:39.338Z,6.90
2023-01-15T05:17:05.910Z,6.80
2023-01-15T05:19:38.660Z,6.70
2023-01-15T05:22:05.853Z,6.60
2023-01-15T05:24:38.647Z,6.60
2023-01-15T05:27:05.706Z,6.50
2023-01-15T05:29:38.752Z,6.50
2023-01-15T05:32:05.613Z,6.40
2023-01-15T05:34:32.201Z,6.40
2023-01-15T05:37:05.641Z,6.30
2023-01-15T05:39:38.628Z,6.30
2023-01-15T05:42:05.277Z,6.30
2023-01-15T05:44:39.697Z,6.20
2023-01-15T05:47:07.680Z,6.20
2023-01-15T05:49:56.669Z,6.20
2023-01-15T05:52:23.265Z,6.10
2023-01-15T05:54:50.552Z,6.10
2023-01-15T05:57:23.693Z,6.10
2023-01-15T05:59:50.483Z,6.10
2023-01-15T06:02:17.123Z,6.10
2023-01-15T06:04:50.681Z,6.10
2023-01-15T06:07:20.375Z,6.00
2023-01-15T06:09:47.082Z,6.00
2023-01-15T06:12:20.698Z,6.00
2023-01-15T06:14:47.283Z,6.00
2023-01-15T06:17:15.052Z,6.00
2023-01-15T06:19:48.685Z,6.00
2023-01-15T06:22:15.351Z,6.00
2023-01-15T06:24:48.702Z,6.00
2023-01-15T06:27:15.311Z,5.90
2023-01-15T06:29:48.700Z,5.90
2023-01-15T06:32:15.939Z,5.90
2023-01-15T06:34:44.522Z,5.90
2023-01-15T06:37:17.687Z,5.90
2023-01-15T06:39:44.286Z,5.90
2023-01-15T06:42:36.711Z,5.90
2023-01-15T06:45:23.805Z,6.00
2023-01-15T06:47:56.761Z,5.90
2023-01-15T06:50:30.162Z,6.00
2023-01-15T06:53:03.700Z,5.90
2023-01-15T06:55:36.698Z,5.90
2023-01-15T06:58:10.662Z,5.90
2023-01-15T07:00:44.732Z,5.90
2023-01-15T07:03:14.318Z,5.90
2023-01-15T07:05:41.429Z,5.90
2023-01-15T07:08:14.707Z,5.90
2023-01-15T07:10:41.367Z,5.90
2023-01-15T07:13:23.698Z,5.90
2023-01-15T07:15:56.700Z,5.90
2023-01-15T07:18:23.330Z,5.80
2023-01-15T07:20:56.694Z,5.80
2023-01-15T07:23:25.012Z,5.90
2023-01-15T07:26:01.709Z,5.80
2023-01-15T07:28:28.320Z,5.80
2023-01-15T07:30:58.737Z,5.80
2023-01-15T07:33:31.637Z,5.90
2023-01-15T07:35:58.331Z,5.90
2023-01-15T07:38:31.620Z,5.80
2023-01-15T07:41:18.839Z,5.80
2023-01-15T07:44:10.691Z,5.80
2023-01-15T07:47:09.619Z,5.80
2023-01-15T07:49:51.640Z,5.90
2023-01-15T07:52:31.723Z,5.80
2023-01-15T07:55:04.681Z,5.80
2023-01-15T07:57:37.623Z,5.80
2023-01-15T08:00:10.218Z,5.80
2023-01-15T08:02:43.731Z,5.80
2023-01-15T08:05:11.504Z,5.80
2023-01-15T08:07:40.031Z,5.80
2023-01-15T08:10:13.695Z,5.80
2023-01-15T08:12:59.480Z,5.80
2023-01-15T08:15:32.664Z,5.90
2023-01-15T08:18:13.679Z,5.80
2023-01-15T08:20:40.321Z,5.80
2023-01-15T08:23:06.972Z,5.80
2023-01-15T08:25:40.710Z,5.80
2023-01-15T08:28:07.619Z,5.80
2023-01-15T08:30:34.229Z,5.80
2023-01-15T08:33:09.698Z,5.90
2023-01-15T08:35:36.586Z,5.80
2023-01-15T08:38:07.384Z,5.80
2023-01-15T08:40:42.667Z,5.90
2023-01-15T08:43:15.670Z,6.00
2023-01-15T08:45:48.774Z,5.90
2023-01-15T08:48:15.781Z,6.00
2023-01-15T08:50:56.735Z,6.00
2023-01-15T08:53:30.083Z,6.00
2023-01-15T08:56:03.677Z,6.00
2023-01-15T08:58:32.249Z,5.90
2023-01-15T09:01:13.715Z,6.00
2023-01-15T09:03:40.374Z,6.00
2023-01-15T09:06:13.728Z,6.00
2023-01-15T09:08:40.491Z,6.00
2023-01-15T09:11:16.655Z,6.10
2023-01-15T09:13:44.471Z,6.00
2023-01-15T09:16:17.647Z,6.10
2023-01-15T09:18:51.146Z,6.10
2023-01-15T09:21:24.687Z,6.10
2023-01-15T09:23:51.395Z,6.10
2023-01-15T09:26:35.604Z,6.10
2023-01-15T09:29:03.318Z,6.10
2023-01-15T09:31:36.673Z,6.20
2023-01-15T09:34:03.545Z,6.20
2023-01-15T09:36:32.761Z,6.30
2023-01-15T09:39:07.619Z,6.30
2023-01-15T09:42:11.746Z,6.30
2023-01-15T09:45:20.669Z,6.30
2023-01-15T09:48:11.856Z,6.40
2023-01-15T09:51:00.683Z,6.40
2023-01-15T09:54:14.368Z,6.50
2023-01-15T09:56:47.696Z,6.50
2023-01-15T09:59:35.813Z,6.50
2023-01-15T10:02:22.651Z,6.60
2023-01-15T10:05:08.875Z,6.60
2023-01-15T10:07:53.683Z,6.60
2023-01-15T10:10:30.667Z,6.60
2023-01-15T10:13:03.573Z,6.70
2023-01-15T10:15:50.696Z,6.80
2023-01-15T10:18:20.979Z,6.80
2023-01-15T10:21:30.708Z,6.80
2023-01-15T10:24:21.645Z,6.90
2023-01-15T10:27:05.673Z,6.90
2023-01-15T10:29:53.956Z,6.90
2023-01-15T10:33:00.719Z,7.00
2023-01-15T10:35:44.620Z,7.00
2023-01-15T10:38:26.755Z,7.00
2023-01-15T10:41:29.660Z,7.10
2023-01-15T10:44:05.732Z,7.10
2023-01-15T10:46:38.311Z,7.10
2023-01-15T10:49:24.694Z,7.10
2023-01-15T10:52:19.665Z,7.10
2023-01-15T10:55:26.056Z,7.10
2023-01-15T10:58:20.613Z,7.10
2023-01-15T11:00:53.066Z,7.10
2023-01-15T11:03:35.775Z,7.10
2023-01-15T11:06:02.487Z,7.20
2023-01-15T11:09:07.436Z,7.10
2023-01-15T11:12:01.745Z,7.20
2023-01-15T11:15:03.650Z,7.20
2023-01-15T11:18:11.635Z,7.20
2023-01-15T11:20:46.291Z,7.20
2023-01-15T11:23:22.656Z,7.20
2023-01-15T11:26:02.649Z,7.20
2023-01-15T11:28:40.861Z,7.30
2023-01-15T11:31:15.941Z,7.30
2023-01-15T11:34:09.709Z,7.30
2023-01-15T11:36:36.301Z,7.40
2023-01-15T11:39:02.926Z,7.40
2023-01-15T11:41:59.663Z,7.40
2023-01-15T11:44:51.692Z,7.40
2023-01-15T11:47:37.906Z,7.30
2023-01-15T11:50:42.702Z,7.40
2023-01-15T11:53:23.731Z,7.40
2023-01-15T11:56:09.709Z,7.40
2023-01-15T11:58:57.671Z,7.40
2023-01-15T12:01:37.637Z,7.40
2023-01-15T12:04:14.834Z,7.40
2023-01-15T12:06:41.774Z,7.30
2023-01-15T12:09:31.630Z,7.30
2023-01-15T12:12:19.899Z,7.40
2023-01-15T12:15:19.634Z,7.30
2023-01-15T12:18:27.138Z,7.40
2023-01-15T12:21:31.654Z,7.40
2023-01-15T12:24:15.097Z,7.40
2023-01-15T12:27:25.716Z,7.40
2023-01-15T12:29:59.131Z,7.30
2023-01-15T12:32:39.689Z,7.30
2023-01-15T12:35:08.962Z,7.40
2023-01-15T12:37:54.651Z,7.40
2023-01-15T12:40:31.629Z,7.40
2023-01-15T12:43:23.678Z,7.50
2023-01-15T12:45:54.163Z,7.40
2023-01-15T12:48:41.752Z,7.40
2023-01-15T12:51:23.742Z,7.40
2023-01-15T12:54:02.695Z,7.50
2023-01-15T12:56:41.619Z,7.50
2023-01-15T12:59:40.630Z,7.50
2023-01-15T13:02:27.755Z,7.50
2023-01-15T13:05:16.644Z,7.40
2023-01-15T13:07:57.678Z,7.40
2023-01-15T13:10:27.850Z,7.40
2023-01-15T13:12:55.874Z,7.40
2023-01-15T13:15:34.607Z,7.50
2023-01-15T13:18:48.002Z,7.40
2023-01-15T13:21:23.621Z,7.40
2023-01-15T13:24:38.719Z,7.40
2023-01-15T13:27:05.307Z,7.40
2023-01-15T13:30:14.590Z,7.50
2023-01-15T13:32:53.541Z,7.50
2023-01-15T13:35:39.700Z,7.40
2023-01-15T13:38:28.651Z,7.40
2023-01-15T13:41:08.678Z,7.30
2023-01-15T13:43:46.605Z,7.20
2023-01-15T13:46:20.799Z,7.20
2023-01-15T13:48:57.680Z,7.20
2023-01-15T13:51:37.485Z,7.20
2023-01-15T13:54:25.675Z,7.20
2023-01-15T13:56:52.271Z,7.30
2023-01-15T13:59:50.727Z,7.20
2023-01-15T14:02:37.315Z,7.20
2023-01-15T14:05:42.611Z,7.20
2023-01-15T14:08:23.649Z,7.10
2023-01-15T14:10:50.579Z,7.10
2023-01-15T14:13:22.996Z,7.10
2023-01-15T14:16:34.788Z,7.10
2023-01-15T14:19:26.399Z,7.10
2023-01-15T14:22:15.662Z,7.20
2023-01-15T14:24:51.305Z,7.10
2023-01-15T14:27:24.599Z,7.10
2023-01-15T14:30:30.708Z,7.00
2023-01-15T14:33:28.608Z,7.00
2023-01-15T14:36:01.657Z,7.00
2023-01-15T14:38:30.153Z,7.00
2023-01-15T14:41:12.670Z,7.00
2023-01-15T14:43:54.610Z,6.90
2023-01-15T14:46:37.655Z,6.90
2023-01-15T14:49:11.681Z,6.80
2023-01-15T14:51:55.627Z,6.80
2023-01-15T14:54:36.658Z,6.70
2023-01-15T14:57:08.077Z,6.80
2023-01-15T15:00:02.754Z,6.70
2023-01-15T15:02:38.621Z,6.60
2023-01-15T15:05:19.699Z,6.60
2023-01-15T15:07:55.180Z,6.60
2023-01-15T15:10:43.701Z,6.50
2023-01-15T15:13:34.608Z,6.50
2023-01-15T15:16:24.426Z,6.60
2023-01-15T15:19:25.114Z,6.50
2023-01-15T15:21:53.073Z,6.50
2023-01-15T15:24:49.606Z,6.50
2023-01-15T15:27:17.806Z,6.50
2023-01-15T15:29:51.612Z,6.50
2023-01-15T15:32:28.614Z,6.40
2023-01-15T15:34:56.018Z,6.30
2023-01-15T15:37:26.004Z,6.30
2023-01-15T15:40:10.667Z,6.20
2023-01-15T15:43:00.155Z,6.10
2023-01-15T15:45:56.731Z,6.10
2023-01-15T15:48:45.042Z,6.00
2023-01-15T15:51:50.684Z,6.00
2023-01-15T15:54:27.671Z,6.00
2023-01-15T15:57:15.716Z,5.90
2023-01-15T15:59:57.607Z,5.90
2023-01-15T16:02:42.620Z,5.90
2023-01-15T16:05:35.754Z,5.80
2023-01-15T16:08:25.705Z,5.80
2023-01-15T16:10:59.604Z,5.80
2023-01-15T16:13:37.644Z,5.80
2023-01-15T16:16:08.092Z,5.80
2023-01-15T16:18:50.655Z,5.70
2023-01-15T16:21:21.064Z,5.70
2023-01-15T16:24:14.656Z,5.70
2023-01-15T16:26:46.022Z,5.60
2023-01-15T16:29:25.672Z,5.60
2023-01-15T16:31:55.885Z,5.60
2023-01-15T16:34:24.404Z,5.50
2023-01-15T16:36:58.653Z,5.50
2023-01-15T16:39:47.676Z,5.60
2023-01-15T16:42:50.683Z,5.50
2023-01-15T16:45:27.675Z,5.50
2023-01-15T16:48:29.971Z,5.40
2023-01-15T16:51:03.597Z,5.50
2023-01-15T16:53:46.669Z,5.50
2023-01-15T16:56:24.777Z,5.50
2023-01-15T16:58:57.651Z,5.50
2023-01-15T17:01:39.721Z,5.50
2023-01-15T17:04:23.656Z,5.50
2023-01-15T17:07:06.678Z,5.50
2023-01-15T17:09:36.381Z,5.50
2023-01-15T17:12:15.670Z,5.60
2023-01-15T17:14:42.355Z,5.50
2023-01-15T17:17:27.679Z,5.60
2023-01-15T17:19:56.213Z,5.60
2023-01-15T17:22:34.638Z,5.60
2023-01-15T17:25:01.446Z,5.50
2023-01-15T17:27:30.050Z,5.60
2023-01-15T17:30:03.626Z,5.60
2023-01-15T17:32:33.576Z,5.50
2023-01-15T17:35:13.661Z,5.50
2023-01-15T17:37:40.268Z,5.50
2023-01-15T17:40:07.621Z,5.50
2023-01-15T17:42:40.593Z,5.50
2023-01-15T17:45:22.634Z,5.60
2023-01-15T17:47:49.955Z,5.50
2023-01-15T17:50:23.658Z,5.50
2023-01-15T17:52:57.020Z,5.50
2023-01-15T17:55:48.680Z,5.50
2023-01-15T17:58:34.701Z,5.40
2023-01-15T18:01:29.733Z,5.50
2023-01-15T18:04:16.339Z,5.50
2023-01-15T18:06:54.802Z,5.50
2023-01-15T18:09:23.753Z,5.50
2023-01-15T18:11:56.660Z,5.50
2023-01-15T18:14:25.268Z,5.50
2023-01-15T18:16:53.098Z,5.50
2023-01-15T18:19:26.728Z,5.50
2023-01-15T18:21:53.380Z,5.50
2023-01-15T18:24:22.130Z,5.40
2023-01-15T18:26:58.613Z,5.40
2023-01-15T18:29:31.694Z,5.40
2023-01-15T18:31:58.307Z,5.40
2023-01-15T18:34:31.582Z,5.40
2023-01-15T18:37:04.758Z,5.40
2023-01-15T18:39:31.509Z,5.40
2023-01-15T18:42:04.661Z,5.40
2023-01-15T18:44:49.879Z,5.40
2023-01-15T18:47:23.677Z,5.40
2023-01-15T18:49:53.803Z,5.40
2023-01-15T18:52:51.674Z,5.40
2023-01-15T18:55:26.740Z,5.40
2023-01-15T18:58:00.603Z,5.30
2023-01-15T19:00:27.364Z,5.30
2023-01-15T19:03:00.694Z,5.30
2023-01-15T19:05:27.317Z,5.30
2023-01-15T19:07:54.209Z,5.30
2023-01-15T19:10:28.670Z,5.30
2023-01-15T19:12:55.328Z,5.30
2023-01-15T19:15:47.747Z,5.30
2023-01-15T19:18:39.634Z,5.40
2023-01-15T19:21:07.813Z,5.40
2023-01-15T19:23:40.690Z,5.30
2023-01-15T19:26:07.442Z,5.40
2023-01-15T19:28:34.062Z,5.30
2023-01-15T19:31:25.721Z,5.30
2023-01-15T19:34:13.280Z,5.30
2023-01-15T19:36:49.682Z,5.30
2023-01-15T19:39:17.716Z,5.30
2023-01-15T19:42:09.603Z,5.30
2023-01-15T19:45:01.623Z,5.30
2023-01-15T19:47:54.590Z,5.20
2023-01-15T19:50:31.602Z,5.20
2023-01-15T19:53:19.552Z,5.20
2023-01-15T19:55:52.601Z,5.20
2023-01-15T19:58:19.360Z,5.30
2023-01-15T20:00:59.667Z,5.30
2023-01-15T20:03:26.446Z,5.40
2023-01-15T20:05:59.646Z,5.40
2023-01-15T20:08:26.513Z,5.40
2023-01-15T20:11:06.605Z,5.40
2023-01-15T20:13:59.669Z,5.40
2023-01-15T20:16:34.592Z,5.50
2023-01-15T20:19:01.193Z,5.50
2023-01-15T20:21:34.719Z,5.50
2023-01-15T20:24:01.333Z,5.60
2023-01-15T20:26:27.948Z,5.50
2023-01-15T20:29:01.588Z,5.60
2023-01-15T20:31:34.688Z,5.60
2023-01-15T20:34:08.602Z,5.60
2023-01-15T20:36:42.759Z,5.60
2023-01-15T20:39:09.490Z,5.60
2023-01-15T20:42:11.660Z,5.60
2023-01-15T20:44:53.670Z,5.50
2023-01-15T20:47:52.611Z,5.50
2023-01-15T20:50:19.355Z,5.40
2023-01-15T20:53:00.574Z,5.40
2023-01-15T20:55:45.594Z,5.40
2023-01-15T20:58:22.709Z,5.50
2023-01-15T21:00:50.569Z,5.40
2023-01-15T21:03:23.667Z,5.50
2023-01-15T21:05:56.584Z,5.40
2023-01-15T21:08:29.642Z,5.50
2023-01-15T21:10:56.387Z,5.50
2023-01-15T21:13:23.616Z,5.40
2023-01-15T21:16:11.567Z,5.50
2023-01-15T21:18:46.613Z,5.50
2023-01-15T21:21:22.669Z,5.50
2023-01-15T21:23:49.468Z,5.50
2023-01-15T21:26:16.612Z,5.50
2023-01-15T21:28:51.568Z,5.50
2023-01-15T21:31:18.263Z,5.60
2023-01-15T21:33:51.641Z,5.50
2023-01-15T21:36:25.019Z,5.50
2023-01-15T21:39:00.639Z,5.40
2023-01-15T21:41:46.155Z,5.40
2023-01-15T21:44:42.664Z,5.40
2023-01-15T21:47:18.577Z,5.40
2023-01-15T21:49:52.574Z,5.30
2023-01-15T21:52:29.310Z,5.40
2023-01-15T21:55:02.673Z,5.30
2023-01-15T21:57:30.888Z,5.30
2023-01-15T21:59:57.516Z,5.30
2023-01-15T22:02:30.736Z,5.30
2023-01-15T22:04:57.364Z,5.40
2023-01-15T22:07:30.636Z,5.30
2023-01-15T22:09:57.230Z,5.30
2023-01-15T22:12:30.683Z,5.30
2023-01-15T22:15:04.666Z,5.20
2023-01-15T22:17:37.615Z,5.20
2023-01-15T22:20:06.188Z,5.20
2023-01-15T22:22:42.562Z,5.20
2023-01-15T22:25:11.753Z,5.20
2023-01-15T22:27:47.617Z,5.20
2023-01-15T22:30:15.652Z,5.20
2023-01-15T22:32:51.471Z,5.20
2023-01-15T22:35:18.304Z,5.10
2023-01-15T22:37:51.585Z,5.10
2023-01-15T22:40:18.426Z,5.00
2023-01-15T22:42:51.625Z,5.00
2023-01-15T22:45:19.986Z,5.10
2023-01-15T22:47:53.599Z,5.00
2023-01-15T22:50:26.567Z,5.00
2023-01-15T22:53:00.134Z,4.90
2023-01-15T22:55:33.602Z,4.90
2023-01-15T22:58:06.647Z,4.90
2023-01-15T23:00:39.644Z,4.90
2023-01-15T23:03:06.264Z,4.80
2023-01-15T23:05:38.814Z,4.90
2023-01-15T23:08:12.614Z,4.90
2023-01-15T23:10:50.583Z,4.80
2023-01-15T23:13:23.700Z,4.80
2023-01-15T23:15:58.795Z,4.80
2023-01-15T23:18:32.610Z,4.90
2023-01-15T23:21:03.525Z,4.90
2023-01-15T23:23:37.613Z,5.00
2023-01-15T23:26:09.919Z,4.90
2023-01-15T23:28:43.549Z,4.90
2023-01-15T23:31:11.220Z,5.00
2023-01-15T23:33:44.632Z,5.00
2023-01-15T23:36:12.193Z,5.00
2023-01-15T23:38:42.885Z,5.10
2023-01-15T23:41:20.544Z,5.10
2023-01-15T23:44:12.580Z,5.10
2023-01-15T23:46:40.291Z,5.10
2023-01-15T23:49:16.659Z,5.10
2023-01-15T23:51:49.617Z,5.10
2023-01-15T23:54:31.855Z,5.10
2023-01-15T23:57:06.575Z,5.00
2023-01-15T23:59:39.647Z,5.00
